sensor_id;sensor_type;location;lat;lon;timestamp;pressure;altitude;pressure_sealevel;temperature;humidity
50702;BME280;36670;50.094;8.496;2023-10-09T00:01:25;100892.03;;;19.10;58.08
50702;BME280;36670;50.094;8.496;2023-10-09T00:03:51;100892.19;;;19.19;57.96
50702;BME280;36670;50.094;8.496;2023-10-09T00:06:19;100894.41;;;19.22;57.59
50702;BME280;36670;50.094;8.496;2023-10-09T00:08:49;100888.19;;;19.01;58.53
50702;BME280;36670;50.094;8.496;2023-10-09T00:11:19;100883.97;;;19.03;58.77
50702;BME280;36670;50.094;8.496;2023-10-09T00:13:46;100881.78;;;19.00;59.41
50702;BME280;36670;50.094;8.496;2023-10-09T00:16:25;100881.94;;;19.09;58.65
50702;BME280;36670;50.094;8.496;2023-10-09T00:19:04;100875.28;;;19.05;59.05
50702;BME280;36670;50.094;8.496;2023-10-09T00:21:40;100864.25;;;19.14;58.96
50702;BME280;36670;50.094;8.496;2023-10-09T00:24:06;100869.34;;;19.12;58.80
50702;BME280;36670;50.094;8.496;2023-10-09T00:26:39;100873.97;;;18.97;58.97
50702;BME280;36670;50.094;8.496;2023-10-09T00:29:08;100864.94;;;19.05;58.30
50702;BME280;36670;50.094;8.496;2023-10-09T00:31:40;100862.78;;;19.21;58.47
50702;BME280;36670;50.094;8.496;2023-10-09T00:34:06;100861.13;;;19.20;58.16
50702;BME280;36670;50.094;8.496;2023-10-09T00:36:32;100867.13;;;19.08;58.92
50702;BME280;36670;50.094;8.496;2023-10-09T00:38:58;100862.47;;;18.69;60.12
50702;BME280;36670;50.094;8.496;2023-10-09T00:41:26;100870.63;;;18.60;60.53
50702;BME280;36670;50.094;8.496;2023-10-09T00:43:54;100868.28;;;18.73;60.33
50702;BME280;36670;50.094;8.496;2023-10-09T00:46:24;100863.34;;;18.94;59.70
50702;BME280;36670;50.094;8.496;2023-10-09T00:48:54;100856.63;;;18.95;59.64
50702;BME280;36670;50.094;8.496;2023-10-09T00:51:20;100854.81;;;19.09;59.18
50702;BME280;36670;50.094;8.496;2023-10-09T00:53:51;100839.66;;;19.10;59.13
50702;BME280;36670;50.094;8.496;2023-10-09T00:56:19;100834.75;;;19.26;58.88
50702;BME280;36670;50.094;8.496;2023-10-09T00:58:47;100829.16;;;19.26;58.79
50702;BME280;36670;50.094;8.496;2023-10-09T01:01:13;100821.16;;;19.15;59.35
50702;BME280;36670;50.094;8.496;2023-10-09T01:03:42;100820.03;;;19.16;59.01
50702;BME280;36670;50.094;8.496;2023-10-09T01:06:10;100815.00;;;18.88;59.58
50702;BME280;36670;50.094;8.496;2023-10-09T01:08:35;100810.97;;;18.70;60.23
50702;BME280;36670;50.094;8.496;2023-10-09T01:11:14;100817.75;;;18.64;59.88
50702;BME280;36670;50.094;8.496;2023-10-09T01:13:55;100798.78;;;18.90;59.60
50702;BME280;36670;50.094;8.496;2023-10-09T01:16:36;100805.28;;;18.81;59.51
50702;BME280;36670;50.094;8.496;2023-10-09T01:19:01;100805.78;;;18.88;59.24
50702;BME280;36670;50.094;8.496;2023-10-09T01:21:31;100803.66;;;18.74;59.56
50702;BME280;36670;50.094;8.496;2023-10-09T01:23:57;100806.88;;;18.92;59.01
50702;BME280;36670;50.094;8.496;2023-10-09T01:26:38;100796.69;;;19.01;58.91
50702;BME280;36670;50.094;8.496;2023-10-09T01:29:12;100807.38;;;18.94;59.03
50702;BME280;36670;50.094;8.496;2023-10-09T01:31:53;100799.88;;;19.14;58.87
50702;BME280;36670;50.094;8.496;2023-10-09T01:34:25;100797.34;;;18.93;58.75
50702;BME280;36670;50.094;8.496;2023-10-09T01:37:03;100796.47;;;18.68;59.96
50702;BME280;36670;50.094;8.496;2023-10-09T01:39:31;100796.28;;;18.89;59.49
50702;BME280;36670;50.094;8.496;2023-10-09T01:41:56;100794.25;;;18.65;59.06
50702;BME280;36670;50.094;8.496;2023-10-09T01:44:31;100796.94;;;18.75;59.51
50702;BME280;36670;50.094;8.496;2023-10-09T01:47:03;100796.28;;;18.89;59.08
50702;BME280;36670;50.094;8.496;2023-10-09T01:49:40;100787.81;;;18.94;58.92
50702;BME280;36670;50.094;8.496;2023-10-09T01:52:11;100791.59;;;18.79;59.22
50702;BME280;36670;50.094;8.496;2023-10-09T01:54:41;100789.38;;;18.76;59.65
50702;BME280;36670;50.094;8.496;2023-10-09T01:57:11;100796.13;;;18.75;59.61
50702;BME280;36670;50.094;8.496;2023-10-09T01:59:44;100792.72;;;18.78;59.79
50702;BME280;36670;50.094;8.496;2023-10-09T02:02:13;100788.88;;;18.98;59.54
50702;BME280;36670;50.094;8.496;2023-10-09T02:04:41;100793.31;;;19.04;59.04
50702;BME280;36670;50.094;8.496;2023-10-09T02:07:07;100798.25;;;19.13;58.83
50702;BME280;36670;50.094;8.496;2023-10-09T02:09:35;100796.31;;;19.08;59.51
50702;BME280;36670;50.094;8.496;2023-10-09T02:12:09;100791.88;;;19.07;59.34
50702;BME280;36670;50.094;8.496;2023-10-09T02:14:34;100806.53;;;18.99;59.80
50702;BME280;36670;50.094;8.496;2023-10-09T02:17:06;100805.47;;;18.60;60.80
50702;BME280;36670;50.094;8.496;2023-10-09T02:19:43;100798.84;;;18.80;60.56
50702;BME280;36670;50.094;8.496;2023-10-09T02:22:13;100802.06;;;18.68;60.35
50702;BME280;36670;50.094;8.496;2023-10-09T02:24:43;100801.78;;;18.65;60.43
50702;BME280;36670;50.094;8.496;2023-10-09T02:27:17;100801.09;;;18.78;60.19
50702;BME280;36670;50.094;8.496;2023-10-09T02:30:05;100808.13;;;18.75;59.72
50702;BME280;36670;50.094;8.496;2023-10-09T02:32:43;100792.84;;;18.68;60.55
50702;BME280;36670;50.094;8.496;2023-10-09T02:35:10;100792.75;;;18.73;60.23
50702;BME280;36670;50.094;8.496;2023-10-09T02:37:57;100787.31;;;18.87;60.15
50702;BME280;36670;50.094;8.496;2023-10-09T02:40:26;100784.63;;;18.76;60.09
50702;BME280;36670;50.094;8.496;2023-10-09T02:42:56;100787.47;;;18.71;60.09
50702;BME280;36670;50.094;8.496;2023-10-09T02:45:21;100774.97;;;18.93;59.67
50702;BME280;36670;50.094;8.496;2023-10-09T02:47:54;100771.28;;;18.98;59.53
50702;BME280;36670;50.094;8.496;2023-10-09T02:50:21;100773.03;;;18.88;59.92
50702;BME280;36670;50.094;8.496;2023-10-09T02:52:47;100774.38;;;18.67;60.67
50702;BME280;36670;50.094;8.496;2023-10-09T02:55:19;100769.22;;;18.20;61.36
50702;BME280;36670;50.094;8.496;2023-10-09T02:57:55;100775.66;;;18.21;61.43
50702;BME280;36670;50.094;8.496;2023-10-09T03:00:36;100772.97;;;18.40;61.30
50702;BME280;36670;50.094;8.496;2023-10-09T03:03:03;100772.38;;;18.43;61.25
50702;BME280;36670;50.094;8.496;2023-10-09T03:05:31;100775.16;;;18.72;60.57
50702;BME280;36670;50.094;8.496;2023-10-09T03:07:57;100758.22;;;18.88;60.31
50702;BME280;36670;50.094;8.496;2023-10-09T03:10:22;100758.03;;;18.79;59.73
50702;BME280;36670;50.094;8.496;2023-10-09T03:12:48;100768.53;;;18.63;60.05
50702;BME280;36670;50.094;8.496;2023-10-09T03:15:19;100767.59;;;18.73;59.96
50702;BME280;36670;50.094;8.496;2023-10-09T03:17:45;100753.09;;;18.95;59.30
50702;BME280;36670;50.094;8.496;2023-10-09T03:20:12;100742.47;;;18.97;59.67
50702;BME280;36670;50.094;8.496;2023-10-09T03:22:39;100749.84;;;18.88;59.56
50702;BME280;36670;50.094;8.496;2023-10-09T03:25:05;100755.91;;;18.95;59.28
50702;BME280;36670;50.094;8.496;2023-10-09T03:27:36;100749.25;;;18.91;59.32
50702;BME280;36670;50.094;8.496;2023-10-09T03:30:01;100738.38;;;18.84;59.68
50702;BME280;36670;50.094;8.496;2023-10-09T03:32:30;100743.88;;;18.95;59.20
50702;BME280;36670;50.094;8.496;2023-10-09T03:34:55;100742.38;;;19.02;59.37
50702;BME280;36670;50.094;8.496;2023-10-09T03:37:21;100735.28;;;18.86;59.50
50702;BME280;36670;50.094;8.496;2023-10-09T03:39:47;100732.19;;;18.63;59.47
50702;BME280;36670;50.094;8.496;2023-10-09T03:42:13;100734.19;;;18.57;59.86
50702;BME280;36670;50.094;8.496;2023-10-09T03:44:45;100746.28;;;18.53;60.29
50702;BME280;36670;50.094;8.496;2023-10-09T03:47:15;100743.66;;;18.62;60.39
50702;BME280;36670;50.094;8.496;2023-10-09T03:49:42;100738.81;;;18.72;59.88
50702;BME280;36670;50.094;8.496;2023-10-09T03:52:08;100737.25;;;18.61;60.21
50702;BME280;36670;50.094;8.496;2023-10-09T03:54:34;100745.94;;;18.59;60.40
50702;BME280;36670;50.094;8.496;2023-10-09T03:57:00;100738.81;;;18.72;60.00
50702;BME280;36670;50.094;8.496;2023-10-09T03:59:26;100741.25;;;18.79;60.18
50702;BME280;36670;50.094;8.496;2023-10-09T04:01:55;100743.66;;;18.86;60.13
50702;BME280;36670;50.094;8.496;2023-10-09T04:04:22;100738.44;;;18.79;60.23
50702;BME280;36670;50.094;8.496;2023-10-09T04:06:48;100754.19;;;18.46;60.50
50702;BME280;36670;50.094;8.496;2023-10-09T04:09:16;100756.56;;;18.57;60.82
50702;BME280;36670;50.094;8.496;2023-10-09T04:11:52;100745.69;;;18.80;59.98
50702;BME280;36670;50.094;8.496;2023-10-09T04:14:40;100744.19;;;18.93;59.81
50702;BME280;36670;50.094;8.496;2023-10-09T04:17:27;100748.38;;;18.96;59.53
50702;BME280;36670;50.094;8.496;2023-10-09T04:19:55;100746.19;;;19.12;59.17
50702;BME280;36670;50.094;8.496;2023-10-09T04:22:40;100741.00;;;19.00;60.02
50702;BME280;36670;50.094;8.496;2023-10-09T04:25:21;100747.06;;;18.83;60.27
50702;BME280;36670;50.094;8.496;2023-10-09T04:28:08;100748.06;;;18.97;59.49
50702;BME280;36670;50.094;8.496;2023-10-09T04:30:47;100744.19;;;18.93;59.79
50702;BME280;36670;50.094;8.496;2023-10-09T04:33:18;100735.41;;;19.00;59.35
50702;BME280;36670;50.094;8.496;2023-10-09T04:36:04;100730.81;;;18.85;59.87
50702;BME280;36670;50.094;8.496;2023-10-09T04:38:52;100731.34;;;18.87;59.83
50702;BME280;36670;50.094;8.496;2023-10-09T04:41:23;100730.66;;;19.00;59.49
50702;BME280;36670;50.094;8.496;2023-10-09T04:44:07;100733.22;;;18.97;59.11
50702;BME280;36670;50.094;8.496;2023-10-09T04:46:51;100736.06;;;18.67;59.78
50702;BME280;36670;50.094;8.496;2023-10-09T04:49:36;100739.81;;;18.82;59.67
50702;BME280;36670;50.094;8.496;2023-10-09T04:52:15;100741.00;;;19.00;59.13
50702;BME280;36670;50.094;8.496;2023-10-09T04:55:04;100738.47;;;19.03;59.18
50702;BME280;36670;50.094;8.496;2023-10-09T04:57:43;100741.50;;;19.07;58.69
50702;BME280;36670;50.094;8.496;2023-10-09T05:02:59;100734.31;;;18.47;60.33
50702;BME280;36670;50.094;8.496;2023-10-09T05:05:49;100736.94;;;18.63;60.23
50702;BME280;36670;50.094;8.496;2023-10-09T05:08:24;100733.72;;;18.74;60.19
50702;BME280;36670;50.094;8.496;2023-10-09T05:11:11;100735.97;;;18.48;60.74
50702;BME280;36670;50.094;8.496;2023-10-09T05:13:55;100738.53;;;18.69;60.04
50702;BME280;36670;50.094;8.496;2023-10-09T05:16:37;100741.16;;;18.60;60.82
50702;BME280;36670;50.094;8.496;2023-10-09T05:19:03;100731.31;;;18.92;60.14
50702;BME280;36670;50.094;8.496;2023-10-09T05:21:44;100740.53;;;18.92;59.95
50702;BME280;36670;50.094;8.496;2023-10-09T05:24:13;100729.66;;;18.91;60.13
50702;BME280;36670;50.094;8.496;2023-10-09T05:29:17;100738.19;;;18.75;60.53
50702;BME280;36670;50.094;8.496;2023-10-09T05:31:59;100741.25;;;19.03;59.42
50702;BME280;36670;50.094;8.496;2023-10-09T05:34:37;100742.03;;;19.09;59.56
50702;BME280;36670;50.094;8.496;2023-10-09T05:37:23;100735.66;;;18.79;60.40
50702;BME280;36670;50.094;8.496;2023-10-09T05:39:55;100745.84;;;18.94;60.40
50702;BME280;36670;50.094;8.496;2023-10-09T05:42:24;100745.13;;;18.83;60.35
50702;BME280;36670;50.094;8.496;2023-10-09T05:44:54;100741.44;;;18.64;60.70
50702;BME280;36670;50.094;8.496;2023-10-09T05:47:38;100734.03;;;18.49;61.29
50702;BME280;36670;50.094;8.496;2023-10-09T05:50:13;100741.34;;;18.45;61.29
50702;BME280;36670;50.094;8.496;2023-10-09T05:52:38;100734.09;;;18.38;62.34
50702;BME280;36670;50.094;8.496;2023-10-09T05:55:04;100750.34;;;18.66;61.44
50702;BME280;36670;50.094;8.496;2023-10-09T05:57:48;100744.63;;;18.76;61.01
50702;BME280;36670;50.094;8.496;2023-10-09T06:00:32;100742.84;;;18.85;61.27
50702;BME280;36670;50.094;8.496;2023-10-09T06:03:16;100752.59;;;18.93;61.36
50702;BME280;36670;50.094;8.496;2023-10-09T06:05:54;100749.91;;;19.07;60.38
50702;BME280;36670;50.094;8.496;2023-10-09T06:08:23;100753.50;;;18.83;60.94
50702;BME280;36670;50.094;8.496;2023-10-09T06:10:56;100753.13;;;18.66;61.50
50702;BME280;36670;50.094;8.496;2023-10-09T06:13:40;100750.94;;;18.63;62.09
50702;BME280;36670;50.094;8.496;2023-10-09T06:16:12;100752.34;;;18.84;61.81
50702;BME280;36670;50.094;8.496;2023-10-09T06:19:06;100759.06;;;18.88;61.34
50702;BME280;36670;50.094;8.496;2023-10-09T06:21:40;100756.63;;;19.06;61.11
50702;BME280;36670;50.094;8.496;2023-10-09T06:24:07;100757.69;;;19.10;60.97
50702;BME280;36670;50.094;8.496;2023-10-09T06:26:43;100763.09;;;19.25;60.82
50702;BME280;36670;50.094;8.496;2023-10-09T06:29:29;100746.66;;;19.19;60.94
50702;BME280;36670;50.094;8.496;2023-10-09T06:32:17;100752.63;;;18.88;61.57
50702;BME280;36670;50.094;8.496;2023-10-09T06:34:57;100745.41;;;18.82;61.79
50702;BME280;36670;50.094;8.496;2023-10-09T06:37:42;100750.38;;;19.14;61.42
50702;BME280;36670;50.094;8.496;2023-10-09T06:40:29;100760.31;;;19.44;60.59
50702;BME280;36670;50.094;8.496;2023-10-09T06:43:22;100755.47;;;19.50;60.48
50702;BME280;36670;50.094;8.496;2023-10-09T06:45:51;100753.72;;;19.35;60.88
50702;BME280;36670;50.094;8.496;2023-10-09T06:48:24;100766.81;;;19.40;60.85
50702;BME280;36670;50.094;8.496;2023-10-09T06:51:03;100751.75;;;19.55;60.70
50702;BME280;36670;50.094;8.496;2023-10-09T06:53:43;100757.13;;;19.32;61.16
50702;BME280;36670;50.094;8.496;2023-10-09T06:56:20;100749.91;;;19.07;62.03
50702;BME280;36670;50.094;8.496;2023-10-09T07:01:24;100756.88;;;19.28;61.35
50702;BME280;36670;50.094;8.496;2023-10-09T07:04:21;100760.00;;;19.27;61.33
50702;BME280;36670;50.094;8.496;2023-10-09T07:06:55;100757.38;;;19.12;61.80
50702;BME280;36670;50.094;8.496;2023-10-09T07:09:22;100753.00;;;19.05;62.22
50702;BME280;36670;50.094;8.496;2023-10-09T07:11:51;100751.50;;;18.89;62.26
50702;BME280;36670;50.094;8.496;2023-10-09T07:14:21;100764.97;;;18.57;63.22
50702;BME280;36670;50.094;8.496;2023-10-09T07:17:05;100751.72;;;18.68;62.84
50702;BME280;36670;50.094;8.496;2023-10-09T07:19:50;100757.09;;;18.89;62.72
50702;BME280;36670;50.094;8.496;2023-10-09T07:22:15;100752.88;;;18.91;62.54
50702;BME280;36670;50.094;8.496;2023-10-09T07:24:56;100765.31;;;19.04;62.67
50702;BME280;36670;50.094;8.496;2023-10-09T07:27:24;100763.69;;;19.22;62.08
50702;BME280;36670;50.094;8.496;2023-10-09T07:30:09;100769.28;;;18.98;62.53
50702;BME280;36670;50.094;8.496;2023-10-09T07:32:56;100773.31;;;18.87;62.60
50702;BME280;36670;50.094;8.496;2023-10-09T07:35:33;100786.16;;;19.17;61.69
50702;BME280;36670;50.094;8.496;2023-10-09T07:38:34;100789.75;;;19.42;61.39
50702;BME280;36670;50.094;8.496;2023-10-09T07:41:03;100785.63;;;19.34;62.03
50702;BME280;36670;50.094;8.496;2023-10-09T07:43:33;100789.00;;;19.36;62.12
50702;BME280;36670;50.094;8.496;2023-10-09T07:46:08;100800.78;;;19.33;61.63
50702;BME280;36670;50.094;8.496;2023-10-09T07:48:52;100800.00;;;19.27;62.08
50702;BME280;36670;50.094;8.496;2023-10-09T07:51:18;100809.09;;;19.38;62.07
50702;BME280;36670;50.094;8.496;2023-10-09T07:53:50;100796.19;;;19.42;62.09
50702;BME280;36670;50.094;8.496;2023-10-09T07:56:23;100795.63;;;19.21;62.38
50702;BME280;36670;50.094;8.496;2023-10-09T07:58:48;100785.13;;;19.32;62.05
50702;BME280;36670;50.094;8.496;2023-10-09T08:01:14;100787.44;;;19.68;61.83
50702;BME280;36670;50.094;8.496;2023-10-09T08:04:02;100791.47;;;19.81;62.02
50702;BME280;36670;50.094;8.496;2023-10-09T08:06:30;100795.97;;;19.77;61.15
50702;BME280;36670;50.094;8.496;2023-10-09T08:09:08;100795.41;;;19.80;61.19
50702;BME280;36670;50.094;8.496;2023-10-09T08:11:41;100800.69;;;20.20;60.90
50702;BME280;36670;50.094;8.496;2023-10-09T08:14:13;100795.91;;;20.53;59.84
50702;BME280;36670;50.094;8.496;2023-10-09T08:16:49;100799.34;;;20.50;60.40
50702;BME280;36670;50.094;8.496;2023-10-09T08:19:17;100803.22;;;20.35;60.18
50702;BME280;36670;50.094;8.496;2023-10-09T08:21:58;100795.72;;;19.98;60.46
50702;BME280;36670;50.094;8.496;2023-10-09T08:24:52;100811.66;;;19.78;60.63
50702;BME280;36670;50.094;8.496;2023-10-09T08:27:27;100812.53;;;20.17;60.46
50702;BME280;36670;50.094;8.496;2023-10-09T08:29:59;100819.94;;;20.07;60.22
50702;BME280;36670;50.094;8.496;2023-10-09T08:32:46;100815.09;;;19.94;60.52
50702;BME280;36670;50.094;8.496;2023-10-09T08:35:33;100815.25;;;19.84;60.70
50702;BME280;36670;50.094;8.496;2023-10-09T08:38:01;100823.19;;;19.76;60.42
50702;BME280;36670;50.094;8.496;2023-10-09T08:40:40;100826.78;;;19.82;60.34
50702;BME280;36670;50.094;8.496;2023-10-09T08:43:15;100833.66;;;19.90;60.51
50702;BME280;36670;50.094;8.496;2023-10-09T08:45:45;100828.22;;;20.32;60.05
50702;BME280;36670;50.094;8.496;2023-10-09T08:48:11;100832.53;;;20.43;60.05
50702;BME280;36670;50.094;8.496;2023-10-09T08:50:52;100833.31;;;20.62;60.15
50702;BME280;36670;50.094;8.496;2023-10-09T08:53:24;100821.44;;;20.85;59.00
50702;BME280;36670;50.094;8.496;2023-10-09T08:55:52;100822.53;;;20.56;59.30
50702;BME280;36670;50.094;8.496;2023-10-09T08:58:18;100815.72;;;20.76;59.07
50702;BME280;36670;50.094;8.496;2023-10-09T09:00:46;100824.00;;;20.67;58.10
50702;BME280;36670;50.094;8.496;2023-10-09T09:03:16;100841.09;;;20.85;58.69
50702;BME280;36670;50.094;8.496;2023-10-09T09:05:46;100831.84;;;20.84;58.61
50702;BME280;36670;50.094;8.496;2023-10-09T09:08:24;100823.50;;;20.79;58.67
50702;BME280;36670;50.094;8.496;2023-10-09T09:14:01;100819.91;;;21.34;57.89
50702;BME280;36670;50.094;8.496;2023-10-09T09:16:31;100828.97;;;21.31;58.22
50702;BME280;36670;50.094;8.496;2023-10-09T09:19:01;100835.63;;;21.07;57.61
50702;BME280;36670;50.094;8.496;2023-10-09T09:21:32;100840.06;;;20.94;58.16
50702;BME280;36670;50.094;8.496;2023-10-09T09:24:04;100836.88;;;21.15;58.05
50702;BME280;36670;50.094;8.496;2023-10-09T09:26:55;100838.88;;;20.68;58.17
50702;BME280;36670;50.094;8.496;2023-10-09T09:29:37;100837.38;;;20.89;58.06
50702;BME280;36670;50.094;8.496;2023-10-09T09:32:04;100854.84;;;21.00;58.10
50702;BME280;36670;50.094;8.496;2023-10-09T09:34:49;100841.56;;;21.06;57.76
50702;BME280;36670;50.094;8.496;2023-10-09T09:37:23;100830.31;;;20.92;57.55
50702;BME280;36670;50.094;8.496;2023-10-09T09:39:54;100839.34;;;20.56;58.49
50702;BME280;36670;50.094;8.496;2023-10-09T09:42:21;100839.78;;;20.63;58.43
50702;BME280;36670;50.094;8.496;2023-10-09T09:44:51;100835.31;;;20.95;58.55
50702;BME280;36670;50.094;8.496;2023-10-09T09:47:17;100838.22;;;21.04;57.55
50702;BME280;36670;50.094;8.496;2023-10-09T09:49:51;100835.63;;;21.35;57.45
50702;BME280;36670;50.094;8.496;2023-10-09T09:52:26;100836.47;;;21.63;57.43
50702;BME280;36670;50.094;8.496;2023-10-09T09:54:52;100835.28;;;21.78;56.78
50702;BME280;36670;50.094;8.496;2023-10-09T09:57:20;100848.22;;;22.16;56.14
50702;BME280;36670;50.094;8.496;2023-10-09T09:59:51;100858.53;;;22.07;56.27
50702;BME280;36670;50.094;8.496;2023-10-09T10:02:29;100870.53;;;22.35;55.93
50702;BME280;36670;50.094;8.496;2023-10-09T10:04:59;100861.28;;;21.98;55.60
50702;BME280;36670;50.094;8.496;2023-10-09T10:07:30;100859.81;;;22.01;55.62
50702;BME280;36670;50.094;8.496;2023-10-09T10:09:56;100855.78;;;21.51;56.04
50702;BME280;36670;50.094;8.496;2023-10-09T10:15:57;100837.41;;;21.31;56.87
50702;BME280;36670;50.094;8.496;2023-10-09T10:18:24;100853.22;;;21.27;56.74
50702;BME280;36670;50.094;8.496;2023-10-09T10:24:01;100844.38;;;21.34;56.98
50702;BME280;36670;50.094;8.496;2023-10-09T10:26:37;100849.38;;;22.01;56.05
50702;BME280;36670;50.094;8.496;2023-10-09T10:29:22;100845.19;;;22.12;56.36
50702;BME280;36670;50.094;8.496;2023-10-09T10:32:00;100846.72;;;22.55;56.53
50702;BME280;36670;50.094;8.496;2023-10-09T10:34:26;100840.69;;;22.11;56.55
50702;BME280;36670;50.094;8.496;2023-10-09T10:37:38;100838.88;;;22.29;56.79
50702;BME280;36670;50.094;8.496;2023-10-09T10:40:25;100818.97;;;22.71;55.90
50702;BME280;36670;50.094;8.496;2023-10-09T10:43:04;100806.69;;;22.36;56.17
50702;BME280;36670;50.094;8.496;2023-10-09T10:45:44;100785.84;;;22.68;55.73
50702;BME280;36670;50.094;8.496;2023-10-09T10:48:10;100761.63;;;22.58;55.09
50702;BME280;36670;50.094;8.496;2023-10-09T10:50:49;100775.19;;;21.88;56.60
50702;BME280;36670;50.094;8.496;2023-10-09T10:53:22;100788.84;;;22.17;56.92
50702;BME280;36670;50.094;8.496;2023-10-09T10:55:58;100783.50;;;22.93;56.44
50702;BME280;36670;50.094;8.496;2023-10-09T10:58:51;100795.09;;;23.31;54.97
50702;BME280;36670;50.094;8.496;2023-10-09T11:01:39;100788.00;;;23.34;54.84
50702;BME280;36670;50.094;8.496;2023-10-09T11:04:25;100793.84;;;23.64;54.76
50702;BME280;36670;50.094;8.496;2023-10-09T11:07:00;100780.94;;;23.80;54.08
50702;BME280;36670;50.094;8.496;2023-10-09T11:09:45;100776.63;;;24.18;53.42
50702;BME280;36670;50.094;8.496;2023-10-09T11:15:10;100774.38;;;24.76;53.32
50702;BME280;36670;50.094;8.496;2023-10-09T11:18:07;100773.13;;;24.30;52.71
50702;BME280;36670;50.094;8.496;2023-10-09T11:20:33;100770.56;;;24.54;52.46
50702;BME280;36670;50.094;8.496;2023-10-09T11:23:00;100751.41;;;24.86;52.31
50702;BME280;36670;50.094;8.496;2023-10-09T11:25:32;100761.94;;;24.60;51.98
50702;BME280;36670;50.094;8.496;2023-10-09T11:27:58;100747.16;;;24.63;52.19
50702;BME280;36670;50.094;8.496;2023-10-09T11:30:39;100747.31;;;25.05;51.21
50702;BME280;36670;50.094;8.496;2023-10-09T11:33:06;100741.81;;;25.09;51.55
50702;BME280;36670;50.094;8.496;2023-10-09T11:35:39;100729.06;;;25.32;50.67
50702;BME280;36670;50.094;8.496;2023-10-09T11:38:06;100732.06;;;25.36;51.15
50702;BME280;36670;50.094;8.496;2023-10-09T11:40:46;100726.59;;;25.52;50.38
50702;BME280;36670;50.094;8.496;2023-10-09T11:43:17;100726.81;;;25.68;50.71
50702;BME280;36670;50.094;8.496;2023-10-09T11:45:43;100727.38;;;25.61;50.48
50702;BME280;36670;50.094;8.496;2023-10-09T11:48:20;100716.41;;;25.81;48.59
50702;BME280;36670;50.094;8.496;2023-10-09T11:51:21;100717.66;;;25.50;49.22
50702;BME280;36670;50.094;8.496;2023-10-09T11:53:46;100712.75;;;25.59;49.54
50702;BME280;36670;50.094;8.496;2023-10-09T11:56:15;100707.78;;;25.77;49.09
50702;BME280;36670;50.094;8.496;2023-10-09T11:58:47;100705.53;;;26.04;49.21
50702;BME280;36670;50.094;8.496;2023-10-09T12:01:15;100701.50;;;26.38;48.50
50702;BME280;36670;50.094;8.496;2023-10-09T12:03:45;100697.72;;;26.34;48.66
50702;BME280;36670;50.094;8.496;2023-10-09T12:06:20;100696.06;;;26.21;48.38
50702;BME280;36670;50.094;8.496;2023-10-09T12:08:47;100694.66;;;26.27;48.53
50702;BME280;36670;50.094;8.496;2023-10-09T12:11:13;100688.78;;;26.32;47.11
50702;BME280;36670;50.094;8.496;2023-10-09T12:13:41;100684.50;;;25.93;48.84
50702;BME280;36670;50.094;8.496;2023-10-09T12:16:09;100681.44;;;26.19;48.20
50702;BME280;36670;50.094;8.496;2023-10-09T12:18:35;100686.75;;;26.33;48.85
50702;BME280;36670;50.094;8.496;2023-10-09T12:21:04;100688.31;;;26.43;48.14
50702;BME280;36670;50.094;8.496;2023-10-09T12:23:30;100687.59;;;26.46;47.48
50702;BME280;36670;50.094;8.496;2023-10-09T12:26:04;100677.13;;;26.46;47.56
50702;BME280;36670;50.094;8.496;2023-10-09T12:28:29;100683.97;;;26.57;47.18
50702;BME280;36670;50.094;8.496;2023-10-09T12:30:58;100672.19;;;26.43;47.09
50702;BME280;36670;50.094;8.496;2023-10-09T12:33:28;100675.09;;;25.67;46.69
50702;BME280;36670;50.094;8.496;2023-10-09T12:35:54;100672.63;;;25.99;45.80
50702;BME280;36670;50.094;8.496;2023-10-09T12:38:26;100670.59;;;25.87;45.52
50702;BME280;36670;50.094;8.496;2023-10-09T12:41:06;100672.81;;;26.28;45.04
50702;BME280;36670;50.094;8.496;2023-10-09T12:43:48;100672.88;;;26.52;44.62
50702;BME280;36670;50.094;8.496;2023-10-09T12:46:14;100668.66;;;26.58;44.86
50702;BME280;36670;50.094;8.496;2023-10-09T12:48:42;100668.28;;;26.48;44.17
50702;BME280;36670;50.094;8.496;2023-10-09T12:51:12;100661.66;;;26.44;45.12
50702;BME280;36670;50.094;8.496;2023-10-09T12:53:41;100667.69;;;26.54;44.75
50702;BME280;36670;50.094;8.496;2023-10-09T12:56:06;100663.47;;;26.85;43.82
50702;BME280;36670;50.094;8.496;2023-10-09T12:58:34;100671.16;;;26.72;44.25
50702;BME280;36670;50.094;8.496;2023-10-09T13:01:02;100677.28;;;26.87;44.00
50702;BME280;36670;50.094;8.496;2023-10-09T13:03:35;100677.63;;;26.98;43.99
50702;BME280;36670;50.094;8.496;2023-10-09T13:06:04;100665.19;;;26.65;43.48
50702;BME280;36670;50.094;8.496;2023-10-09T13:08:32;100665.13;;;26.74;44.04
50702;BME280;36670;50.094;8.496;2023-10-09T13:11:02;100663.09;;;26.37;44.54
50702;BME280;36670;50.094;8.496;2023-10-09T13:13:35;100674.16;;;26.43;44.01
50702;BME280;36670;50.094;8.496;2023-10-09T13:16:14;100663.13;;;26.74;43.94
50702;BME280;36670;50.094;8.496;2023-10-09T13:18:57;100672.78;;;26.49;43.73
50702;BME280;36670;50.094;8.496;2023-10-09T13:21:28;100663.72;;;26.80;43.49
50702;BME280;36670;50.094;8.496;2023-10-09T13:23:57;100661.19;;;26.54;43.19
50702;BME280;36670;50.094;8.496;2023-10-09T13:26:23;100655.22;;;26.80;42.93
50702;BME280;36670;50.094;8.496;2023-10-09T13:28:56;100664.16;;;26.57;42.74
50702;BME280;36670;50.094;8.496;2023-10-09T13:31:22;100657.91;;;26.64;43.09
50702;BME280;36670;50.094;8.496;2023-10-09T13:33:51;100651.53;;;26.67;43.36
50702;BME280;36670;50.094;8.496;2023-10-09T13:36:19;100640.69;;;26.82;43.04
50702;BME280;36670;50.094;8.496;2023-10-09T13:38:55;100640.94;;;26.89;42.74
50702;BME280;36670;50.094;8.496;2023-10-09T13:41:21;100653.09;;;26.77;42.54
50702;BME280;36670;50.094;8.496;2023-10-09T13:43:47;100635.59;;;27.00;42.93